Time;durP1;ratioP1;P1;durP2;ratioP2;P2;SDS_P1;SDS_P2;PMS_P1;PMS_P2;Temp;Humidity;BMP_temperature;BMP_pressure;BME280_temperature;BME280_humidity;BME280_pressure;Samples;Min_cycle;Max_cycle;Signal;HPM_P1;HPM_P2
2021/12/11 00:00:33;;;;;;;46.93;28.30;;;3.60;99.90;;;;;;5058598;28;20528;-81
2021/12/11 00:03:18;;;;;;;39.63;25.40;;;3.60;99.90;;;;;;5057719;28;20045;-80
2021/12/11 00:05:51;;;;;;;43.73;27.43;;;3.60;99.90;;;;;;5057336;28;20488;-80
2021/12/11 00:08:23;;;;;;;40.27;27.07;;;3.60;99.90;;;;;;5057550;28;20061;-81
2021/12/11 00:11:09;;;;;;;46.37;26.87;;;3.60;99.90;;;;;;5058061;28;20518;-78
2021/12/11 00:13:40;;;;;;;43.33;26.77;;;3.60;99.90;;;;;;5058769;28;20266;-80
2021/12/11 00:16:11;;;;;;;40.53;26.03;;;3.50;99.90;;;;;;5058447;28;20025;-80
2021/12/11 00:18:38;;;;;;;45.50;27.77;;;3.50;99.90;;;;;;5058516;28;20104;-81
2021/12/11 00:21:08;;;;;;;40.97;25.43;;;3.50;99.90;;;;;;5041798;28;20121;-81
2021/12/11 00:23:38;;;;;;;40.67;26.47;;;3.50;99.90;;;;;;5057477;28;20032;-81
2021/12/11 00:26:07;;;;;;;44.70;26.47;;;3.60;99.90;;;;;;5058957;28;20104;-79
2021/12/11 00:28:33;;;;;;;38.50;25.53;;;3.60;99.90;;;;;;5057912;28;20025;-80
2021/12/11 00:30:59;;;;;;;44.13;26.80;;;3.60;99.90;;;;;;5056785;28;20513;-81
2021/12/11 00:33:30;;;;;;;40.93;26.43;;;3.50;99.90;;;;;;5056785;28;20056;-80
2021/12/11 00:35:56;;;;;;;44.60;27.87;;;3.60;99.90;;;;;;5057320;28;20028;-81
2021/12/11 00:38:33;;;;;;;40.83;26.93;;;3.70;99.90;;;;;;5040574;28;20039;-81
2021/12/11 00:41:03;;;;;;;45.30;26.40;;;3.80;99.90;;;;;;5057780;28;20029;-81
2021/12/11 00:43:34;;;;;;;47.70;27.47;;;3.90;99.90;;;;;;5057431;28;20124;-81
2021/12/11 00:46:01;;;;;;;45.57;28.20;;;3.80;99.90;;;;;;5057120;28;20025;-82
2021/12/11 00:48:28;;;;;;;44.33;26.60;;;3.90;99.90;;;;;;5058303;28;20029;-81
2021/12/11 00:50:57;;;;;;;53.03;29.10;;;4.00;99.90;;;;;;5057140;28;20419;-79
2021/12/11 00:53:45;;;;;;;46.53;28.87;;;4.10;99.90;;;;;;5057859;28;20044;-81
2021/12/11 00:56:13;;;;;;;53.13;27.77;;;4.10;99.90;;;;;;5059039;28;20031;-80
2021/12/11 00:58:41;;;;;;;50.50;29.00;;;4.20;99.90;;;;;;5057958;28;20025;-80
2021/12/11 01:01:07;;;;;;;50.07;28.57;;;4.20;99.90;;;;;;5058966;28;20024;-80
2021/12/11 01:03:50;;;;;;;53.57;28.47;;;4.30;99.90;;;;;;5059147;28;20036;-80
2021/12/11 01:06:27;;;;;;;48.83;26.95;;;4.20;99.90;;;;;;5059226;28;20029;-81
2021/12/11 01:09:01;;;;;;;51.30;28.37;;;4.20;99.90;;;;;;5061630;28;20025;-79
2021/12/11 01:11:36;;;;;;;59.67;30.00;;;4.20;99.90;;;;;;5064084;28;20025;-80
2021/12/11 01:14:26;;;;;;;53.77;30.10;;;4.30;99.90;;;;;;5062338;28;20045;-82
2021/12/11 01:17:01;;;;;;;47.93;27.40;;;4.30;99.90;;;;;;5060841;28;20017;-81
2021/12/11 01:19:36;;;;;;;59.93;27.13;;;4.30;99.90;;;;;;5061051;28;20021;-82
2021/12/11 01:22:10;;;;;;;58.43;28.97;;;4.40;99.90;;;;;;5060215;28;20082;-80
2021/12/11 01:24:46;;;;;;;53.60;27.80;;;4.30;99.90;;;;;;5060208;28;20385;-81
2021/12/11 01:27:17;;;;;;;106.77;28.43;;;4.30;99.90;;;;;;5059939;28;20021;-81
2021/12/11 01:29:45;;;;;;;65.33;28.80;;;4.30;99.90;;;;;;5060128;28;20490;-82
2021/12/11 01:32:12;;;;;;;81.63;29.23;;;4.30;99.90;;;;;;5043516;28;20029;-81
2021/12/11 01:34:38;;;;;;;75.10;29.47;;;4.30;99.90;;;;;;5061115;28;20033;-81
2021/12/11 01:37:05;;;;;;;96.37;30.63;;;4.30;99.90;;;;;;5043084;28;20035;-81
2021/12/11 01:39:39;;;;;;;114.20;31.37;;;4.20;99.90;;;;;;5061092;28;20339;-81
2021/12/11 01:42:17;;;;;;;79.37;32.23;;;4.20;99.90;;;;;;5063411;28;20436;-81
2021/12/11 01:44:45;;;;;;;63.13;31.33;;;4.20;99.90;;;;;;5060264;28;20108;-80
2021/12/11 01:47:15;;;;;;;71.10;32.17;;;4.20;99.90;;;;;;5063614;28;20017;-82
2021/12/11 01:49:45;;;;;;;59.17;30.10;;;4.20;99.90;;;;;;5059374;28;20029;-82
2021/12/11 01:52:29;;;;;;;66.00;32.60;;;4.20;99.90;;;;;;5059831;28;20523;-82
2021/12/11 01:54:55;;;;;;;71.83;31.23;;;4.20;99.90;;;;;;5059752;28;20496;-81
2021/12/11 01:57:25;;;;;;;65.37;31.87;;;4.20;99.90;;;;;;5061056;28;20028;-80
2021/12/11 01:59:57;;;;;;;62.83;31.23;;;4.30;99.90;;;;;;5061361;28;20021;-80
2021/12/11 02:02:29;;;;;;;71.93;30.90;;;4.20;99.90;;;;;;5061619;28;20021;-81
2021/12/11 02:04:55;;;;;;;63.83;31.60;;;4.20;99.90;;;;;;5061998;28;20032;-81
2021/12/11 02:07:32;;;;;;;67.90;30.27;;;4.20;99.90;;;;;;5061325;28;20031;-81
2021/12/11 02:10:00;;;;;;;65.27;31.33;;;4.30;99.90;;;;;;5061901;28;20083;-77
2021/12/11 02:12:34;;;;;;;68.93;31.30;;;4.30;99.90;;;;;;5059776;28;20029;-81
2021/12/11 02:15:03;;;;;;;67.53;30.67;;;4.30;99.90;;;;;;5059692;28;20021;-78
2021/12/11 02:17:40;;;;;;;56.67;29.30;;;4.40;99.90;;;;;;5059123;28;20036;-81
2021/12/11 02:20:12;;;;;;;76.60;30.70;;;4.50;99.90;;;;;;5060208;28;20033;-82
2021/12/11 02:22:45;;;;;;;60.47;32.33;;;4.50;99.90;;;;;;5059770;28;20365;-81
2021/12/11 02:25:13;;;;;;;;;;;4.50;99.90;;;;;;5060308;28;20028;-80
2021/12/11 02:27:46;;;;;;;73.43;30.73;;;4.50;99.90;;;;;;5060903;28;19995;-81
2021/12/11 02:30:19;;;;;;;63.43;31.40;;;4.50;99.90;;;;;;5060899;28;20105;-81
2021/12/11 02:32:56;;;;;;;67.70;30.70;;;4.50;99.90;;;;;;5060012;28;20049;-80
2021/12/11 02:35:33;;;;;;;67.73;32.37;;;4.50;99.90;;;;;;5060037;28;20029;-81
2021/12/11 02:38:10;;;;;;;63.53;31.23;;;4.50;99.90;;;;;;5065060;28;20028;-80
2021/12/11 02:41:01;;;;;;;62.53;30.40;;;4.50;99.90;;;;;;5064790;28;20025;-81
2021/12/11 02:43:37;;;;;;;72.03;31.03;;;4.50;99.90;;;;;;5061966;28;20025;-80
2021/12/11 02:46:11;;;;;;;63.77;31.47;;;4.50;99.90;;;;;;5061259;28;20125;-78
2021/12/11 02:48:47;;;;;;;60.03;30.43;;;4.50;99.90;;;;;;5061222;28;20032;-81
2021/12/11 02:51:22;;;;;;;66.90;31.40;;;4.50;99.90;;;;;;5060972;28;20603;-80
2021/12/11 02:54:00;;;;;;;68.87;31.83;;;4.50;99.90;;;;;;5060964;28;20029;-81
2021/12/11 02:56:36;;;;;;;65.33;31.57;;;4.60;99.90;;;;;;5060200;28;20021;-81
2021/12/11 02:59:07;;;;;;;72.57;32.80;;;4.70;99.90;;;;;;5059362;28;20025;-77
2021/12/11 03:01:38;;;;;;;70.93;33.20;;;4.70;99.90;;;;;;5059585;28;20032;-81
2021/12/11 03:04:20;;;;;;;68.53;33.00;;;4.70;99.90;;;;;;5060093;28;20410;-76
2021/12/11 03:06:48;;;;;;;73.37;34.47;;;4.70;99.90;;;;;;5061533;28;20020;-80
2021/12/11 03:09:19;;;;;;;66.20;32.60;;;4.80;99.90;;;;;;5059343;28;20021;-79
2021/12/11 03:11:45;;;;;;;66.73;33.70;;;4.80;99.90;;;;;;5060382;28;20021;-80
2021/12/11 03:14:14;;;;;;;69.03;33.90;;;4.80;99.90;;;;;;5060603;28;20449;-81
2021/12/11 03:16:42;;;;;;;69.27;35.00;;;4.90;99.90;;;;;;5058290;28;20051;-81
2021/12/11 03:19:11;;;;;;;72.87;36.20;;;4.80;99.90;;;;;;5058393;28;20040;-80
2021/12/11 03:21:38;;;;;;;71.80;34.30;;;4.80;99.90;;;;;;5059882;28;20029;-81
2021/12/11 03:24:06;;;;;;;73.10;37.47;;;4.80;99.90;;;;;;5059211;28;20452;-77
2021/12/11 03:26:32;;;;;;;73.03;37.73;;;4.80;99.90;;;;;;5041498;28;20029;-81
2021/12/11 03:28:58;;;;;;;74.03;36.53;;;4.80;99.90;;;;;;5058276;28;20029;-81
2021/12/11 03:31:24;;;;;;;72.50;34.97;;;4.80;99.90;;;;;;5058523;28;20052;-81
2021/12/11 03:33:56;;;;;;;73.60;36.30;;;4.90;99.90;;;;;;5058562;28;20025;-81
2021/12/11 03:36:24;;;;;;;71.33;36.33;;;4.90;99.90;;;;;;5059181;28;20388;-81
2021/12/11 03:38:53;;;;;;;72.57;36.27;;;4.90;99.90;;;;;;5058601;28;20028;-81
2021/12/11 03:41:21;;;;;;;69.00;34.73;;;4.80;99.90;;;;;;5058303;28;20120;-80
2021/12/11 03:43:47;;;;;;;81.30;38.60;;;4.90;99.90;;;;;;5058074;28;20033;-80
2021/12/11 03:46:15;;;;;;;77.33;36.90;;;5.00;99.90;;;;;;5058282;28;20043;-82
2021/12/11 03:49:00;;;;;;;75.00;36.43;;;4.90;99.90;;;;;;5058976;28;20088;-80
2021/12/11 03:51:31;;;;;;;74.97;37.20;;;5.00;99.90;;;;;;5058251;28;20031;-81
2021/12/11 03:53:58;;;;;;;76.47;38.73;;;5.00;99.90;;;;;;5058339;28;20124;-81
2021/12/11 03:56:25;;;;;;;70.77;35.77;;;5.00;99.90;;;;;;5059226;28;20025;-81
2021/12/11 03:58:51;;;;;;;77.50;37.67;;;5.00;99.90;;;;;;5041559;28;20032;-82
2021/12/11 04:01:49;;;;;;;73.10;35.97;;;5.00;99.90;;;;;;5058004;28;20358;-80
2021/12/11 04:04:19;;;;;;;78.03;38.07;;;5.00;99.90;;;;;;5059248;28;20461;-81
2021/12/11 04:06:46;;;;;;;81.50;37.60;;;5.00;99.90;;;;;;5059672;28;20020;-80
2021/12/11 04:09:16;;;;;;;79.77;37.90;;;5.00;99.90;;;;;;5057197;28;20036;-79
2021/12/11 04:11:44;;;;;;;78.40;39.37;;;5.00;99.90;;;;;;5061030;28;20108;-82
2021/12/11 04:14:14;;;;;;;76.57;37.90;;;5.00;99.90;;;;;;5058337;28;20540;-80
2021/12/11 04:16:40;;;;;;;92.50;42.47;;;5.00;99.90;;;;;;5059234;28;20035;-81
2021/12/11 04:19:07;;;;;;;83.80;39.20;;;4.90;99.90;;;;;;5057018;28;20032;-81
2021/12/11 04:21:33;;;;;;;81.90;39.53;;;4.90;99.90;;;;;;5041063;28;20028;-80
2021/12/11 04:24:00;;;;;;;86.10;39.43;;;4.90;99.90;;;;;;5058164;28;20032;-79
2021/12/11 04:26:26;;;;;;;83.03;39.03;;;5.00;99.90;;;;;;5040554;28;20036;-80
2021/12/11 04:28:52;;;;;;;84.93;40.80;;;5.00;99.90;;;;;;5058230;28;20025;-81
2021/12/11 04:31:24;;;;;;;85.10;38.90;;;5.00;99.90;;;;;;5056307;28;20055;-80
2021/12/11 04:33:52;;;;;;;87.30;40.25;;;5.10;99.90;;;;;;5057046;28;20036;-81
2021/12/11 04:36:24;;;;;;;85.57;40.63;;;5.10;99.90;;;;;;5058126;28;20055;-80
2021/12/11 04:38:50;;;;;;;84.57;38.90;;;5.10;99.90;;;;;;5058415;28;20084;-80
2021/12/11 04:41:24;;;;;;;86.37;42.53;;;5.10;99.90;;;;;;5056979;28;20025;-80
2021/12/11 04:43:51;;;;;;;95.87;44.33;;;5.00;99.90;;;;;;5061246;28;20120;-80
2021/12/11 04:46:17;;;;;;;91.83;41.30;;;5.00;99.90;;;;;;5044716;28;20365;-80
2021/12/11 04:51:40;;;;;;;90.97;43.00;;;5.00;99.90;;;;;;5062569;28;20040;-81
2021/12/11 04:54:29;;;;;;;90.73;40.20;;;4.90;99.90;;;;;;5061169;28;20029;-80
2021/12/11 04:57:20;;;;;;;93.53;41.93;;;4.90;99.90;;;;;;5061005;28;20079;-80
2021/12/11 05:10:39;;;;;;;110.53;47.03;;;4.90;99.90;;;;;;5060253;28;20033;-81
2021/12/11 05:13:06;;;;;;;107.87;46.43;;;4.80;99.90;;;;;;5060113;28;20396;-80
2021/12/11 05:15:37;;;;;;;124.73;49.00;;;4.80;99.90;;;;;;5043815;28;20531;-81
2021/12/11 05:18:08;;;;;;;113.70;45.83;;;4.70;99.90;;;;;;5062054;28;20405;-81
2021/12/11 05:20:35;;;;;;;116.30;46.50;;;4.70;99.90;;;;;;5062440;28;20070;-80
2021/12/11 05:23:00;;;;;;;129.60;49.53;;;4.90;99.90;;;;;;5061131;28;20037;-81
2021/12/11 05:25:27;;;;;;;123.30;45.27;;;4.80;99.90;;;;;;5061320;28;20029;-81
2021/12/11 05:27:53;;;;;;;121.53;49.67;;;4.90;99.90;;;;;;5028390;28;20021;-81
2021/12/11 05:30:30;;;;;;;124.20;47.83;;;4.90;99.90;;;;;;5060865;28;20464;-81
2021/12/11 05:32:58;;;;;;;129.27;48.47;;;4.90;99.90;;;;;;5060875;28;20042;-80
2021/12/11 05:35:25;;;;;;;124.47;47.67;;;4.90;99.90;;;;;;5044233;28;20025;-80
2021/12/11 05:37:52;;;;;;;134.03;50.03;;;4.90;99.90;;;;;;5061573;28;20087;-81
2021/12/11 05:40:22;;;;;;;125.33;47.30;;;4.90;99.90;;;;;;5060413;28;20032;-78
2021/12/11 05:42:50;;;;;;;127.57;46.43;;;5.00;99.90;;;;;;5061986;28;20029;-81
2021/12/11 05:45:16;;;;;;;125.87;49.33;;;5.10;99.90;;;;;;5061483;28;20029;-81
2021/12/11 05:47:43;;;;;;;121.37;44.27;;;5.10;99.90;;;;;;5043748;28;20029;-80
2021/12/11 05:50:13;;;;;;;127.57;48.13;;;5.10;99.90;;;;;;5059743;28;20105;-79
2021/12/11 05:52:39;;;;;;;122.50;45.63;;;5.10;99.90;;;;;;5060938;28;20029;-80
2021/12/11 05:55:08;;;;;;;123.50;46.53;;;5.10;99.90;;;;;;5060477;28;20465;-81
2021/12/11 05:57:36;;;;;;;129.80;46.70;;;5.10;99.90;;;;;;5059949;28;20083;-81
2021/12/11 06:00:06;;;;;;;132.10;48.53;;;5.20;99.90;;;;;;5061987;28;20035;-80
2021/12/11 06:02:32;;;;;;;130.67;47.20;;;5.30;99.90;;;;;;5064360;28;20357;-80
2021/12/11 06:04:59;;;;;;;125.40;46.73;;;5.30;99.90;;;;;;5061758;28;20029;-80
2021/12/11 06:07:27;;;;;;;127.53;46.97;;;5.30;99.90;;;;;;5060161;28;20488;-81
2021/12/11 06:10:04;;;;;;;127.37;47.13;;;5.30;99.90;;;;;;5061776;28;20481;-80
2021/12/11 06:12:30;;;;;;;119.27;44.93;;;5.30;99.90;;;;;;5059847;28;20389;-80
2021/12/11 06:14:56;;;;;;;127.43;46.43;;;5.40;99.90;;;;;;5060466;28;20028;-80
2021/12/11 06:17:25;;;;;;;124.00;45.93;;;5.40;99.90;;;;;;5026793;28;20461;-79
2021/12/11 06:19:53;;;;;;;123.77;44.50;;;5.40;99.90;;;;;;5059575;28;20093;-81
2021/12/11 06:22:21;;;;;;;121.43;43.67;;;5.40;99.90;;;;;;5060580;28;20035;-78
2021/12/11 06:24:47;;;;;;;119.20;42.17;;;5.50;99.90;;;;;;5055347;28;20120;-81
2021/12/11 06:27:13;;;;;;;109.83;41.73;;;5.50;99.90;;;;;;5055983;28;20033;-78
2021/12/11 06:29:39;;;;;;;112.53;39.23;;;5.60;99.90;;;;;;5038713;28;20110;-80
2021/12/11 06:32:07;;;;;;;114.33;42.60;;;5.70;99.90;;;;;;5039973;28;20045;-80
2021/12/11 06:34:34;;;;;;;123.23;44.37;;;5.80;99.90;;;;;;5055172;28;20024;-79
2021/12/11 06:37:02;;;;;;;114.93;42.13;;;5.70;99.90;;;;;;5056412;28;20488;-79
2021/12/11 06:39:28;;;;;;;128.73;44.17;;;5.60;99.90;;;;;;5056592;28;20025;-78
2021/12/11 06:41:57;;;;;;;114.87;40.30;;;5.50;99.90;;;;;;5054547;28;20036;-78
2021/12/11 06:44:29;;;;;;;111.73;41.70;;;5.50;99.90;;;;;;5054512;28;20539;-77
2021/12/11 06:47:02;;;;;;;122.47;43.13;;;5.50;99.90;;;;;;5054805;28;20044;-78
2021/12/11 06:49:29;;;;;;;;;;;5.40;99.90;;;;;;5055598;28;20082;-77
2021/12/11 06:51:55;;;;;;;113.43;40.47;;;5.30;99.90;;;;;;5054661;28;19905;-78
2021/12/11 06:54:21;;;;;;;109.43;40.30;;;5.30;99.90;;;;;;5053264;28;20079;-76
2021/12/11 06:56:48;;;;;;;110.30;39.67;;;5.40;99.90;;;;;;5053461;28;20025;-78
2021/12/11 06:59:14;;;;;;;112.37;39.13;;;5.40;99.90;;;;;;5053423;28;20021;-78
2021/12/11 07:01:41;;;;;;;100.70;36.90;;;5.50;99.90;;;;;;5054380;28;20052;-78
2021/12/11 07:04:09;;;;;;;98.63;36.20;;;5.50;99.90;;;;;;5052978;28;20029;-79
2021/12/11 07:06:38;;;;;;;100.27;36.60;;;5.60;99.90;;;;;;5053188;28;20033;-78
2021/12/11 07:09:05;;;;;;;103.23;37.17;;;5.60;99.90;;;;;;5053230;28;20311;-78
2021/12/11 07:11:32;;;;;;;105.90;38.77;;;5.70;99.90;;;;;;5052901;28;20119;-78
2021/12/11 07:13:58;;;;;;;103.50;37.37;;;5.60;99.90;;;;;;5054569;28;20035;-78
2021/12/11 07:16:24;;;;;;;87.43;34.50;;;5.60;99.90;;;;;;5054314;28;20029;-77
2021/12/11 07:18:50;;;;;;;89.03;34.17;;;5.50;99.90;;;;;;5052928;28;20483;-78
2021/12/11 07:21:16;;;;;;;78.20;32.60;;;5.60;99.90;;;;;;5053741;28;20029;-78
2021/12/11 07:23:47;;;;;;;81.13;33.20;;;5.60;99.90;;;;;;5052598;28;20115;-77
2021/12/11 07:26:18;;;;;;;77.97;31.70;;;5.60;99.90;;;;;;5037072;28;20138;-77
2021/12/11 07:28:49;;;;;;;79.63;33.37;;;5.70;99.90;;;;;;5053129;28;20029;-78
2021/12/11 07:31:16;;;;;;;86.20;33.97;;;5.70;99.90;;;;;;5052576;28;20049;-79
2021/12/11 07:33:42;;;;;;;77.13;31.80;;;5.70;99.90;;;;;;5053853;28;20040;-79
2021/12/11 07:36:08;;;;;;;74.83;30.47;;;5.70;99.90;;;;;;5052471;28;20385;-77
2021/12/11 07:38:34;;;;;;;77.97;32.67;;;5.80;99.90;;;;;;5052591;28;20453;-78
2021/12/11 07:41:03;;;;;;;74.93;32.93;;;5.80;99.90;;;;;;5035794;28;20036;-72
2021/12/11 07:43:29;;;;;;;73.17;31.60;;;5.80;99.90;;;;;;5052194;28;20037;-73
2021/12/11 07:45:57;;;;;;;77.13;31.90;;;5.90;99.90;;;;;;5026407;28;20037;-72
2021/12/11 07:48:23;;;;;;;73.00;31.03;;;5.90;99.90;;;;;;5043755;28;20024;-71
2021/12/11 07:50:48;;;;;;;69.00;28.97;;;5.80;99.90;;;;;;5043449;28;20457;-71
2021/12/11 07:53:16;;;;;;;65.30;29.03;;;5.90;99.90;;;;;;5061280;28;20029;-73
2021/12/11 07:55:42;;;;;;;64.77;28.90;;;5.90;99.90;;;;;;5060202;28;20025;-72
2021/12/11 07:58:09;;;;;;;65.57;29.00;;;5.90;99.90;;;;;;5059086;28;20029;-73
2021/12/11 08:00:37;;;;;;;62.43;27.70;;;6.00;99.90;;;;;;5058170;28;20041;-71
2021/12/11 08:03:03;;;;;;;67.33;28.57;;;6.10;99.90;;;;;;5052840;28;20041;-71
2021/12/11 08:05:30;;;;;;;63.27;28.03;;;6.10;99.90;;;;;;5051837;28;20556;-73
2021/12/11 08:08:00;;;;;;;67.20;29.87;;;6.10;99.90;;;;;;5052220;28;20025;-72
2021/12/11 08:10:27;;;;;;;62.40;27.73;;;6.10;99.90;;;;;;5052206;28;20021;-72
2021/12/11 08:12:53;;;;;;;68.73;31.30;;;6.10;99.90;;;;;;5052389;28;20025;-72
2021/12/11 08:15:20;;;;;;;68.73;30.40;;;6.10;99.90;;;;;;5051632;28;20447;-72
2021/12/11 08:17:52;;;;;;;66.50;29.90;;;6.10;99.90;;;;;;5052246;28;20029;-72
2021/12/11 08:20:19;;;;;;;67.60;30.95;;;6.20;99.90;;;;;;5051876;28;20036;-72
2021/12/11 08:22:45;;;;;;;70.17;32.87;;;6.10;99.90;;;;;;5051729;28;20111;-72
2021/12/11 08:25:11;;;;;;;65.07;31.33;;;6.10;99.90;;;;;;5051668;28;20048;-72
2021/12/11 08:27:37;;;;;;;71.67;34.57;;;6.10;99.90;;;;;;5051723;28;20032;-72
2021/12/11 08:30:05;;;;;;;66.87;31.70;;;6.10;99.90;;;;;;5035659;28;20029;-72
2021/12/11 08:32:31;;;;;;;69.70;33.90;;;6.10;99.90;;;;;;5053199;28;20045;-74
2021/12/11 08:34:59;;;;;;;70.47;33.60;;;6.10;99.90;;;;;;5052217;28;20116;-73
2021/12/11 08:37:26;;;;;;;71.57;35.17;;;6.10;99.90;;;;;;5019787;28;20455;-73
2021/12/11 08:39:52;;;;;;;70.17;34.90;;;6.20;99.90;;;;;;5052398;28;20045;-74
2021/12/11 08:42:21;;;;;;;72.60;36.07;;;6.40;99.90;;;;;;5035940;28;20033;-72
2021/12/11 08:44:53;;;;;;;72.60;35.77;;;6.30;99.90;;;;;;5053223;28;20469;-72
2021/12/11 08:47:22;;;;;;;72.80;35.53;;;6.40;99.90;;;;;;5022750;28;20118;-73
2021/12/11 08:49:50;;;;;;;74.57;36.80;;;6.40;99.90;;;;;;5055301;28;20025;-72
2021/12/11 08:52:21;;;;;;;79.00;38.17;;;6.50;99.90;;;;;;5035160;28;20119;-72
2021/12/11 08:54:48;;;;;;;71.20;36.53;;;6.50;99.90;;;;;;5053633;28;20479;-73
2021/12/11 08:57:27;;;;;;;72.07;38.00;;;6.50;99.90;;;;;;5020127;28;20079;-72
2021/12/11 08:59:58;;;;;;;69.57;37.17;;;6.50;99.90;;;;;;5054418;28;20144;-72
2021/12/11 09:02:33;;;;;;;74.20;39.50;;;6.60;99.90;;;;;;5052003;28;20031;-73
2021/12/11 09:05:09;;;;;;;65.33;35.03;;;6.60;99.90;;;;;;5052103;28;20048;-73
2021/12/11 09:07:43;;;;;;;67.53;36.30;;;6.70;99.90;;;;;;5052202;28;20017;-72
2021/12/11 09:10:18;;;;;;;65.00;34.90;;;6.70;99.90;;;;;;5052337;28;20481;-72
2021/12/11 09:13:07;;;;;;;68.03;34.80;;;6.80;99.90;;;;;;5052508;28;20098;-73
2021/12/11 09:15:53;;;;;;;65.07;34.93;;;6.90;99.90;;;;;;5051816;28;20021;-73
2021/12/11 09:18:25;;;;;;;57.90;32.60;;;7.00;99.90;;;;;;5052613;28;20101;-73
2021/12/11 09:21:01;;;;;;;54.38;32.92;;;7.20;99.90;;;;;;5051749;28;20433;-72
2021/12/11 09:24:03;;;;;;;54.77;30.20;;;7.30;99.90;;;;;;5051554;28;20029;-74
2021/12/11 09:26:41;;;;;;;52.40;29.93;;;7.40;99.90;;;;;;5044365;28;20672;-72
2021/12/11 09:29:14;;;;;;;47.40;26.60;;;7.50;99.90;;;;;;5053398;28;20029;-72
2021/12/11 09:32:06;;;;;;;47.23;25.33;;;7.60;99.90;;;;;;5054757;28;20131;-74
2021/12/11 09:34:41;;;;;;;45.83;24.33;;;7.70;99.90;;;;;;5056805;28;20025;-76
2021/12/11 09:37:09;;;;;;;41.67;24.13;;;7.70;99.90;;;;;;5056469;28;20115;-78
2021/12/11 09:39:43;;;;;;;37.00;20.53;;;7.70;99.90;;;;;;5057543;28;20047;-77
2021/12/11 09:42:09;;;;;;;31.70;17.53;;;7.60;99.90;;;;;;5055446;28;20021;-77
2021/12/11 09:44:43;;;;;;;27.53;14.10;;;7.50;99.90;;;;;;5055350;28;20033;-79
2021/12/11 09:47:16;;;;;;;29.13;14.70;;;7.50;99.90;;;;;;5055668;28;20096;-76
2021/12/11 09:49:53;;;;;;;29.10;13.88;;;7.50;99.90;;;;;;5057196;28;20028;-79
2021/12/11 09:52:25;;;;;;;30.87;13.27;;;7.40;99.90;;;;;;5055603;28;20029;-78
2021/12/11 09:55:08;;;;;;;29.20;13.15;;;7.40;99.90;;;;;;5056352;28;20059;-76
2021/12/11 09:57:38;;;;;;;27.27;14.00;;;7.40;99.90;;;;;;5056602;28;20449;-79
2021/12/11 10:00:16;;;;;;;30.43;12.20;;;7.40;99.90;;;;;;5056893;28;20369;-77
2021/12/11 10:02:43;;;;;;;25.83;11.03;;;7.50;99.90;;;;;;5056702;28;20036;-77
2021/12/11 10:05:37;;;;;;;31.37;11.47;;;7.50;99.90;;;;;;5055068;28;20025;-78
2021/12/11 10:08:31;;;;;;;29.90;12.27;;;7.60;99.90;;;;;;5056247;28;20019;-77
2021/12/11 10:11:12;;;;;;;28.90;13.80;;;7.70;99.90;;;;;;5055770;28;20568;-79
2021/12/11 10:13:54;;;;;;;27.43;9.90;;;7.80;99.90;;;;;;5055499;28;20059;-78
2021/12/11 10:16:24;;;;;;;25.58;11.00;;;7.90;99.90;;;;;;5056308;28;20539;-77
2021/12/11 10:18:50;;;;;;;24.70;10.30;;;7.90;99.90;;;;;;5054126;28;20025;-79
2021/12/11 10:21:21;;;;;;;23.20;8.83;;;8.00;99.90;;;;;;5055182;28;20108;-79
2021/12/11 10:23:52;;;;;;;19.30;9.03;;;8.00;99.90;;;;;;5055703;28;20140;-77
2021/12/11 10:26:19;;;;;;;22.17;9.10;;;7.90;99.90;;;;;;5054959;28;20036;-78
2021/12/11 10:28:49;;;;;;;24.40;10.83;;;8.00;99.90;;;;;;5054306;28;20025;-77
2021/12/11 10:31:20;;;;;;;26.87;10.80;;;8.10;99.90;;;;;;5053773;28;20041;-78
2021/12/11 10:33:46;;;;;;;22.77;8.83;;;8.20;99.90;;;;;;5055520;28;20056;-77
2021/12/11 10:36:15;;;;;;;25.50;9.23;;;8.30;99.90;;;;;;5037935;28;20473;-78
2021/12/11 10:38:43;;;;;;;24.23;12.33;;;8.30;99.90;;;;;;5055695;28;20057;-77
2021/12/11 10:41:11;;;;;;;29.93;12.70;;;8.30;99.90;;;;;;5054604;28;20032;-77
2021/12/11 10:43:53;;;;;;;22.73;9.53;;;8.40;99.90;;;;;;5054999;28;20560;-77
2021/12/11 10:46:21;;;;;;;21.17;11.03;;;8.50;99.90;;;;;;5056273;28;20028;-78
2021/12/11 10:48:50;;;;;;;27.67;14.67;;;8.40;99.90;;;;;;5057034;28;20017;-77
2021/12/11 10:51:23;;;;;;;27.80;13.13;;;8.50;99.90;;;;;;5038715;28;20048;-78
2021/12/11 10:53:51;;;;;;;24.07;8.00;;;8.60;99.90;;;;;;5056435;28;20473;-78
2021/12/11 10:56:20;;;;;;;20.60;10.33;;;8.60;99.90;;;;;;5054252;28;20021;-77
2021/12/11 10:58:57;;;;;;;20.23;7.03;;;8.60;99.80;;;;;;5054200;28;20056;-78
2021/12/11 11:01:47;;;;;;;14.47;7.87;;;8.60;99.60;;;;;;5054235;28;20021;-78
2021/12/11 11:04:41;;;;;;;22.03;10.93;;;8.60;99.60;;;;;;5055819;28;20021;-78
2021/12/11 11:07:10;;;;;;;21.65;10.95;;;8.70;99.60;;;;;;5049197;28;20032;-78
2021/12/11 11:09:38;;;;;;;20.53;10.07;;;8.70;99.40;;;;;;5056020;28;20051;-79
2021/12/11 11:12:09;;;;;;;29.23;12.80;;;8.80;99.40;;;;;;5054662;28;20039;-78
2021/12/11 11:14:35;;;;;;;20.30;8.23;;;8.80;99.50;;;;;;5055484;28;20021;-79
2021/12/11 11:17:06;;;;;;;21.73;11.77;;;8.90;99.30;;;;;;5037598;28;20074;-77
2021/12/11 11:19:34;;;;;;;18.83;9.40;;;9.00;99.20;;;;;;5054690;28;20028;-78
2021/12/11 11:22:05;;;;;;;17.87;9.27;;;9.00;99.10;;;;;;5053976;28;20025;-78
2021/12/11 11:24:36;;;;;;;16.70;7.23;;;9.10;99.00;;;;;;5053438;28;20033;-78
2021/12/11 11:27:04;;;;;;;20.77;11.47;;;9.00;98.60;;;;;;5054220;28;20025;-78
2021/12/11 11:29:30;;;;;;;19.17;8.80;;;9.00;98.70;;;;;;5053938;28;20033;-79
2021/12/11 11:32:00;;;;;;;18.13;9.60;;;9.00;98.70;;;;;;5035759;28;20520;-79
2021/12/11 11:34:27;;;;;;;14.17;8.70;;;9.00;98.50;;;;;;5052847;28;20033;-80
2021/12/11 11:36:55;;;;;;;16.50;9.37;;;8.90;98.40;;;;;;5036121;28;20040;-78
2021/12/11 11:39:25;;;;;;;14.03;7.80;;;8.90;98.40;;;;;;5052430;28;20024;-78
2021/12/11 11:41:55;;;;;;;22.13;12.60;;;9.00;98.40;;;;;;5036682;28;20063;-79
2021/12/11 11:44:24;;;;;;;19.90;8.00;;;9.00;98.40;;;;;;5053085;28;20112;-79
2021/12/11 11:46:54;;;;;;;15.70;7.07;;;8.90;98.30;;;;;;5052563;28;20516;-79
2021/12/11 11:49:20;;;;;;;19.67;9.70;;;8.80;98.10;;;;;;5052636;28;20544;-79
2021/12/11 11:51:52;;;;;;;19.27;8.93;;;8.70;98.40;;;;;;5051684;28;20025;-78
2021/12/11 11:54:20;;;;;;;19.30;11.17;;;8.70;98.50;;;;;;5052517;28;20020;-78
2021/12/11 11:56:55;;;;;;;17.03;9.97;;;8.80;98.70;;;;;;5052646;28;20029;-78
2021/12/11 11:59:21;;;;;;;14.27;9.27;;;8.80;98.80;;;;;;5052547;28;20017;-79
2021/12/11 12:01:55;;;;;;;17.23;8.93;;;8.70;98.60;;;;;;5052801;28;20357;-79
2021/12/11 12:04:22;;;;;;;17.90;8.53;;;8.70;98.70;;;;;;5051739;28;20044;-78
2021/12/11 12:06:54;;;;;;;18.53;9.67;;;8.80;98.80;;;;;;5035256;28;20029;-78
2021/12/11 12:09:22;;;;;;;21.23;8.23;;;8.80;98.80;;;;;;5053350;28;20028;-78
2021/12/11 12:11:47;;;;;;;20.63;7.33;;;8.90;98.60;;;;;;5035549;28;20385;-79
2021/12/11 12:14:17;;;;;;;15.53;7.30;;;9.00;98.50;;;;;;5052867;28;20028;-78
2021/12/11 12:16:44;;;;;;;23.60;10.77;;;9.10;98.50;;;;;;5051786;28;20036;-78
2021/12/11 12:19:10;;;;;;;17.40;7.43;;;9.20;98.50;;;;;;5052710;28;20033;-78
2021/12/11 12:21:39;;;;;;;14.50;7.40;;;9.30;98.20;;;;;;5051624;28;20025;-78
2021/12/11 12:24:05;;;;;;;18.57;8.53;;;9.30;98.10;;;;;;5051811;28;20033;-78
2021/12/11 12:26:34;;;;;;;22.83;10.23;;;9.50;98.10;;;;;;5035110;28;20025;-78
2021/12/11 12:29:01;;;;;;;24.47;10.17;;;9.50;98.00;;;;;;5052973;28;20028;-78
2021/12/11 12:31:38;;;;;;;23.20;11.87;;;9.60;98.00;;;;;;5053234;28;20060;-78
2021/12/11 12:34:04;;;;;;;24.23;11.33;;;9.60;98.00;;;;;;5058126;28;20032;-77
2021/12/11 12:36:31;;;;;;;20.60;9.33;;;9.70;97.80;;;;;;5053336;28;20033;-77
2021/12/11 12:38:58;;;;;;;20.40;8.93;;;9.70;97.70;;;;;;5057031;28;20029;-78
2021/12/11 12:41:38;;;;;;;24.73;10.17;;;9.60;97.60;;;;;;5052865;28;20021;-78
2021/12/11 12:44:18;;;;;;;21.30;8.57;;;9.60;97.70;;;;;;5053270;28;20082;-77
2021/12/11 12:46:46;;;;;;;25.50;12.17;;;9.50;97.60;;;;;;5052088;28;20032;-77
2021/12/11 12:49:14;;;;;;;21.50;9.50;;;9.40;97.80;;;;;;5052628;28;20033;-78
2021/12/11 12:51:40;;;;;;;23.93;13.53;;;9.30;97.90;;;;;;5051766;28;20086;-77
2021/12/11 12:54:09;;;;;;;20.93;10.00;;;9.30;98.20;;;;;;5051542;28;20036;-78
2021/12/11 12:56:49;;;;;;;25.40;13.17;;;9.30;98.20;;;;;;5052938;28;20025;-78
2021/12/11 12:59:26;;;;;;;28.87;15.30;;;9.30;98.60;;;;;;5053104;28;20025;-79
2021/12/11 13:01:59;;;;;;;22.83;10.87;;;9.30;98.50;;;;;;5052107;28;20104;-78
2021/12/11 13:04:33;;;;;;;25.70;14.33;;;9.40;98.50;;;;;;5055908;28;20523;-79
2021/12/11 13:07:03;;;;;;;21.63;9.43;;;9.50;98.70;;;;;;5056243;28;20542;-80
2021/12/11 13:09:42;;;;;;;25.00;9.67;;;9.50;98.40;;;;;;5055475;28;20033;-80